Terminal Aerodrome Forecast
Issued by NWS Sioux Falls, SD

Home | Current Version | Previous Version | Graphics & Text | Print | Product List | Glossary Off
Versions: 1 2 3 4 5 6 7 8 9 10 11 12 13 14 15 16 17 18 19 20 21 22 23 24 25 26 27 28 29 30 31 32 33 34 35 36

000
FTUS43 KFSD 271343 AAA
TAFSUX
TAF AMD
KSUX 271343Z 2714/2812 14009KT P6SM SCT022 OVC200
      TEMPO 2714/2716 BKN022
     FM271600 15011KT P6SM SCT025 SCT060 BKN200
     FM271900 16014G21KT P6SM SCT050 SCT200
     FM280100 15012KT P6SM BKN120=

USA.gov is the U.S. government's official web portal to all federal, state and local government web resources and services.